createdAt,value
2022-12-31T06:44:22.618Z,160.20
2022-12-31T06:49:17.932Z,164.47
2022-12-31T06:51:46.291Z,159.60
2022-12-31T06:54:13.744Z,163.27
2022-12-31T06:56:41.376Z,157.13
2022-12-31T06:59:24.394Z,147.77
2022-12-31T07:01:57.333Z,132.23
2022-12-31T07:04:45.150Z,119.57
2022-12-31T07:07:26.485Z,149.77
2022-12-31T07:10:08.328Z,128.53
2022-12-31T07:12:44.028Z,129.97
2022-12-31T07:15:25.771Z,127.03
2022-12-31T07:18:14.086Z,129.07
2022-12-31T07:20:42.076Z,135.45
2022-12-31T07:23:09.429Z,152.87
2022-12-31T07:25:41.266Z,147.10
2022-12-31T07:28:18.324Z,139.33
2022-12-31T07:30:55.820Z,116.67
2022-12-31T07:33:23.260Z,118.83
2022-12-31T07:35:50.093Z,111.13
2022-12-31T07:38:37.570Z,97.17
2022-12-31T07:41:42.879Z,99.67
2022-12-31T07:44:10.046Z,93.57
2022-12-31T07:47:00.964Z,94.07
2022-12-31T07:49:30.309Z,97.33
2022-12-31T07:51:57.381Z,99.18
2022-12-31T07:54:24.359Z,97.07
2022-12-31T07:56:52.139Z,88.17
2022-12-31T07:59:46.831Z,82.60
2022-12-31T08:02:40.119Z,70.47
2022-12-31T08:05:21.872Z,65.53
2022-12-31T08:08:08.820Z,65.75
2022-12-31T08:11:01.678Z,53.60
2022-12-31T08:13:29.334Z,53.25
2022-12-31T08:15:56.691Z,56.40
2022-12-31T08:18:24.068Z,57.15
2022-12-31T08:21:34.817Z,50.60
2022-12-31T08:24:40.870Z,49.10
2022-12-31T08:27:20.699Z,38.78
2022-12-31T08:29:58.751Z,36.90
2022-12-31T08:32:41.568Z,35.42
2022-12-31T08:35:29.097Z,37.67
2022-12-31T08:38:18.758Z,36.58
2022-12-31T08:41:00.985Z,37.95
2022-12-31T08:43:54.092Z,38.15
2022-12-31T08:46:31.662Z,36.17
2022-12-31T08:48:58.864Z,36.17
2022-12-31T08:51:27.234Z,38.75
2022-12-31T08:53:55.551Z,37.05
2022-12-31T08:56:50.658Z,37.35
2022-12-31T08:59:39.920Z,37.00
2022-12-31T09:02:34.816Z,35.20
2022-12-31T09:05:13.453Z,36.75
2022-12-31T09:07:55.148Z,40.90
2022-12-31T09:10:35.647Z,34.70
2022-12-31T09:13:05.540Z,34.75
2022-12-31T09:15:40.934Z,31.15
2022-12-31T09:18:10.090Z,29.15
2022-12-31T09:20:45.215Z,30.63
2022-12-31T09:23:13.660Z,29.98
2022-12-31T09:26:01.040Z,31.15
2022-12-31T09:28:44.709Z,32.42
2022-12-31T09:31:37.315Z,30.63
2022-12-31T09:34:13.572Z,31.50
2022-12-31T09:36:47.000Z,31.48
2022-12-31T09:39:43.309Z,32.70
2022-12-31T09:42:22.865Z,33.72
2022-12-31T09:45:17.584Z,35.05
2022-12-31T09:48:24.110Z,33.42
2022-12-31T09:51:08.926Z,31.85
2022-12-31T09:53:47.464Z,39.30
2022-12-31T09:56:27.354Z,39.33
2022-12-31T09:58:57.009Z,44.85
2022-12-31T10:01:42.792Z,44.88
2022-12-31T10:04:09.997Z,46.42
2022-12-31T10:06:49.326Z,46.05
2022-12-31T10:12:32.711Z,45.45
2022-12-31T10:15:21.335Z,38.00
2022-12-31T10:18:25.795Z,38.78
2022-12-31T10:21:21.432Z,35.13
2022-12-31T10:24:22.552Z,34.03
2022-12-31T10:27:09.470Z,30.63
2022-12-31T10:29:59.483Z,33.55
2022-12-31T10:32:41.137Z,33.03
2022-12-31T10:35:29.940Z,38.95
2022-12-31T10:38:09.268Z,34.03
2022-12-31T10:40:57.967Z,34.05
2022-12-31T10:43:54.840Z,33.17
2022-12-31T10:46:58.706Z,29.88
2022-12-31T10:49:45.530Z,31.60
2022-12-31T10:52:38.159Z,32.85
2022-12-31T10:55:26.940Z,31.88
2022-12-31T10:58:02.030Z,32.55
2022-12-31T11:01:16.185Z,32.75
2022-12-31T11:04:09.257Z,34.25
2022-12-31T11:07:20.380Z,32.53
2022-12-31T11:10:25.155Z,35.08
2022-12-31T11:13:22.948Z,29.95
2022-12-31T11:16:13.549Z,30.48
2022-12-31T11:18:48.192Z,31.60
2022-12-31T11:21:28.261Z,30.73
2022-12-31T11:24:19.433Z,30.15
2022-12-31T11:27:17.339Z,32.47
2022-12-31T11:29:44.594Z,35.17
2022-12-31T11:32:28.477Z,34.50
2022-12-31T11:35:15.107Z,33.45
2022-12-31T11:37:50.968Z,32.03
2022-12-31T11:40:42.845Z,34.17
2022-12-31T11:43:35.948Z,32.08
2022-12-31T11:46:19.271Z,31.67
2022-12-31T11:48:58.697Z,37.35
2022-12-31T11:51:50.011Z,34.60
2022-12-31T11:54:44.969Z,33.13
2022-12-31T11:57:30.144Z,32.28
2022-12-31T12:00:00.875Z,32.28
2022-12-31T12:02:36.285Z,34.70
2022-12-31T12:05:10.703Z,35.53
2022-12-31T12:07:38.181Z,35.55
2022-12-31T12:10:23.660Z,33.58
2022-12-31T12:12:52.376Z,37.25
2022-12-31T12:15:24.794Z,36.88
2022-12-31T12:17:59.782Z,37.08
2022-12-31T12:20:33.047Z,33.22
2022-12-31T12:23:01.657Z,37.13
2022-12-31T12:25:39.556Z,31.50
2022-12-31T12:28:18.772Z,34.22
2022-12-31T12:30:54.902Z,30.38
2022-12-31T12:33:21.971Z,30.73
2022-12-31T12:35:49.028Z,29.52
2022-12-31T12:38:19.632Z,28.92
2022-12-31T12:40:59.145Z,28.85
2022-12-31T12:43:29.019Z,29.05
2022-12-31T12:46:03.725Z,31.40
2022-12-31T12:48:39.123Z,27.90
2022-12-31T12:51:30.822Z,25.50
2022-12-31T12:54:08.264Z,29.98
2022-12-31T12:57:05.767Z,29.77
2022-12-31T13:00:17.244Z,26.75
2022-12-31T13:03:29.019Z,26.42
2022-12-31T13:06:02.018Z,29.02
2022-12-31T13:08:59.345Z,28.10
2022-12-31T13:12:07.702Z,26.95
2022-12-31T13:14:43.946Z,28.13
2022-12-31T13:17:49.769Z,27.73
2022-12-31T13:20:35.486Z,28.05
2022-12-31T13:23:05.945Z,25.98
2022-12-31T13:25:38.714Z,27.75
2022-12-31T13:28:12.189Z,26.40
2022-12-31T13:30:43.299Z,25.45
2022-12-31T13:33:37.689Z,28.25
2022-12-31T13:36:20.734Z,24.15
2022-12-31T13:38:50.308Z,23.42
2022-12-31T13:41:22.909Z,23.98
2022-12-31T13:43:51.160Z,23.05
2022-12-31T13:46:28.421Z,21.17
2022-12-31T13:49:01.867Z,20.20
2022-12-31T13:51:44.671Z,20.23
2022-12-31T13:54:11.580Z,19.55
2022-12-31T13:56:40.800Z,21.27
2022-12-31T13:59:17.598Z,24.10
2022-12-31T14:01:53.543Z,25.25
2022-12-31T14:04:59.110Z,23.02
2022-12-31T14:07:49.971Z,25.15
2022-12-31T14:10:23.536Z,23.33
2022-12-31T14:13:16.529Z,25.95
2022-12-31T14:16:02.029Z,28.08
2022-12-31T14:18:49.801Z,31.60
2022-12-31T14:22:00.279Z,26.80
2022-12-31T14:24:46.864Z,27.80
2022-12-31T14:27:29.321Z,26.98
2022-12-31T14:30:01.742Z,29.30
2022-12-31T14:32:46.504Z,29.17
2022-12-31T14:35:34.556Z,32.90
2022-12-31T14:38:19.978Z,30.75
2022-12-31T14:41:04.996Z,37.90
2022-12-31T14:44:00.316Z,31.58
2022-12-31T14:46:38.996Z,30.52
2022-12-31T14:49:30.626Z,30.95
2022-12-31T14:52:21.007Z,31.08
2022-12-31T14:54:58.779Z,30.02
2022-12-31T14:57:47.473Z,27.92
2022-12-31T15:00:50.792Z,28.20
2022-12-31T15:03:17.705Z,27.42
2022-12-31T15:06:00.615Z,24.85
2022-12-31T15:08:27.435Z,23.27
2022-12-31T15:10:57.309Z,25.08
2022-12-31T15:13:40.112Z,24.40
2022-12-31T15:16:25.746Z,22.83
2022-12-31T15:19:25.691Z,25.85
2022-12-31T15:21:58.665Z,28.48
2022-12-31T15:24:27.846Z,77.00
2022-12-31T15:27:06.908Z,36.15
2022-12-31T15:29:42.056Z,25.00
2022-12-31T15:32:20.736Z,25.90
2022-12-31T15:34:47.769Z,23.77
2022-12-31T15:37:35.407Z,25.92
2022-12-31T15:40:20.800Z,24.25
2022-12-31T15:43:00.236Z,25.20
2022-12-31T15:48:06.852Z,21.80
2022-12-31T15:50:37.575Z,20.67
2022-12-31T15:53:07.193Z,20.30
2022-12-31T15:55:48.833Z,20.07
2022-12-31T15:58:24.721Z,19.33
2022-12-31T16:00:59.360Z,19.60
2022-12-31T16:03:29.309Z,18.40
2022-12-31T16:06:08.586Z,18.80
2022-12-31T16:08:37.411Z,18.37
2022-12-31T16:11:06.555Z,18.60
2022-12-31T16:13:37.290Z,19.23
2022-12-31T16:16:19.993Z,17.73
2022-12-31T16:21:38.670Z,19.70
2022-12-31T16:24:29.250Z,22.47
2022-12-31T16:27:01.386Z,21.60
2022-12-31T16:29:29.081Z,32.30
2022-12-31T16:31:56.623Z,28.50
2022-12-31T16:34:27.823Z,24.13
2022-12-31T16:36:56.535Z,32.55
2022-12-31T16:39:27.875Z,31.33
2022-12-31T16:42:13.944Z,30.87
2022-12-31T16:44:41.728Z,37.33
2022-12-31T16:47:15.493Z,33.87
2022-12-31T16:49:43.178Z,33.80
2022-12-31T16:52:39.873Z,34.77
2022-12-31T16:55:30.841Z,54.07
2022-12-31T16:58:11.398Z,55.70
2022-12-31T17:00:38.595Z,43.37
2022-12-31T17:03:09.070Z,53.87
2022-12-31T17:05:59.732Z,61.77
2022-12-31T17:09:09.789Z,59.03
2022-12-31T17:11:56.589Z,70.77
2022-12-31T17:14:28.876Z,81.17
2022-12-31T17:17:06.334Z,101.23
2022-12-31T17:19:40.673Z,136.20
2022-12-31T17:22:32.785Z,85.57
2022-12-31T17:25:18.032Z,91.77
2022-12-31T17:27:59.766Z,104.53
2022-12-31T17:30:35.633Z,127.87
2022-12-31T17:33:02.576Z,109.50
2022-12-31T17:35:33.850Z,128.17
2022-12-31T17:38:22.595Z,147.17
2022-12-31T17:41:14.238Z,142.77
2022-12-31T17:43:42.730Z,138.43
2022-12-31T17:46:16.866Z,153.73
2022-12-31T17:48:46.459Z,131.80
2022-12-31T17:51:13.467Z,142.63
2022-12-31T17:53:40.479Z,120.93
2022-12-31T17:56:16.840Z,142.83
2022-12-31T17:58:50.100Z,75.90
2022-12-31T18:01:20.713Z,109.93
2022-12-31T18:03:48.593Z,99.57
2022-12-31T18:06:17.186Z,95.13
2022-12-31T18:08:44.364Z,67.50
2022-12-31T18:11:21.083Z,66.90
2022-12-31T18:13:48.673Z,53.50
2022-12-31T18:16:15.833Z,48.77
2022-12-31T18:18:43.940Z,51.27
2022-12-31T18:21:22.411Z,39.20
2022-12-31T18:23:50.145Z,43.63
2022-12-31T18:26:20.349Z,59.53
2022-12-31T18:28:48.251Z,72.80
2022-12-31T18:31:35.378Z,62.87
2022-12-31T18:34:02.249Z,63.83
2022-12-31T18:36:29.356Z,67.23
2022-12-31T18:38:56.472Z,71.23
2022-12-31T18:41:27.143Z,78.83
2022-12-31T18:43:55.403Z,92.37
2022-12-31T18:46:24.747Z,93.80
2022-12-31T18:48:51.901Z,129.50
2022-12-31T18:51:31.126Z,153.13
2022-12-31T18:54:01.193Z,154.50
2022-12-31T18:56:29.036Z,170.40
2022-12-31T18:58:56.032Z,172.17
2022-12-31T19:01:34.975Z,94.57
2022-12-31T19:04:26.597Z,94.78
2022-12-31T19:06:54.388Z,112.33
2022-12-31T19:09:44.845Z,101.60
2022-12-31T19:12:13.350Z,96.40
2022-12-31T19:14:40.702Z,109.20
2022-12-31T19:19:34.982Z,133.67
2022-12-31T19:22:03.049Z,152.52
2022-12-31T19:24:30.314Z,164.67
2022-12-31T19:26:57.274Z,167.90
2022-12-31T19:29:26.645Z,100.47
2022-12-31T19:31:54.273Z,101.30
2022-12-31T19:34:21.802Z,114.67
2022-12-31T19:36:48.789Z,108.57
2022-12-31T19:39:21.054Z,137.93
2022-12-31T19:41:54.747Z,159.93
2022-12-31T19:44:25.523Z,175.70
2022-12-31T19:46:52.592Z,185.57
2022-12-31T19:49:19.493Z,180.80
2022-12-31T19:51:46.617Z,187.77
2022-12-31T19:54:13.915Z,176.70
2022-12-31T19:56:41.254Z,179.90
2022-12-31T19:59:10.745Z,183.17
2022-12-31T20:01:39.278Z,180.10
2022-12-31T20:04:06.593Z,175.93
2022-12-31T20:06:33.574Z,184.40
2022-12-31T20:09:00.723Z,182.33
2022-12-31T20:11:27.830Z,165.90
2022-12-31T20:13:55.159Z,160.30
2022-12-31T20:16:24.735Z,157.10
2022-12-31T20:18:51.771Z,172.93
2022-12-31T20:21:23.155Z,203.90
2022-12-31T20:23:53.685Z,193.17
2022-12-31T20:26:23.048Z,224.07
2022-12-31T20:28:51.033Z,173.93
2022-12-31T20:31:21.509Z,165.83
2022-12-31T20:33:48.638Z,163.60
2022-12-31T20:36:17.620Z,185.67
2022-12-31T20:38:45.039Z,143.67
2022-12-31T20:41:17.883Z,174.03
2022-12-31T20:43:45.682Z,164.50
2022-12-31T20:46:22.835Z,167.07
2022-12-31T20:48:52.023Z,168.67
2022-12-31T20:51:20.993Z,153.27
2022-12-31T20:53:50.245Z,155.93
2022-12-31T20:56:18.190Z,171.90
2022-12-31T20:58:45.406Z,151.80
2022-12-31T21:01:13.160Z,174.83
2022-12-31T21:06:30.900Z,129.77
2022-12-31T21:09:00.144Z,155.53
2022-12-31T21:11:46.423Z,164.43
2022-12-31T21:14:13.527Z,184.27
2022-12-31T21:16:40.545Z,156.83
2022-12-31T21:19:07.726Z,189.87
2022-12-31T21:21:34.756Z,169.53
2022-12-31T21:24:01.826Z,181.60
2022-12-31T21:26:29.781Z,173.63
2022-12-31T21:28:56.809Z,172.23
2022-12-31T21:31:23.844Z,175.30
2022-12-31T21:33:50.817Z,167.87
2022-12-31T21:36:17.940Z,173.57
2022-12-31T21:38:45.197Z,212.70
2022-12-31T21:41:34.142Z,204.67
2022-12-31T21:44:02.832Z,200.13
2022-12-31T21:46:30.122Z,172.40
2022-12-31T21:49:00.064Z,177.23
2022-12-31T21:51:28.585Z,285.47
2022-12-31T21:53:56.021Z,301.63
2022-12-31T21:56:23.061Z,227.30
2022-12-31T21:59:16.815Z,228.57
2022-12-31T22:02:03.219Z,229.93
2022-12-31T22:07:17.870Z,363.80
2022-12-31T22:09:44.886Z,270.07
2022-12-31T22:12:11.843Z,323.80
2022-12-31T22:14:38.740Z,258.93
2022-12-31T22:17:05.679Z,212.93
2022-12-31T22:19:39.274Z,291.50
2022-12-31T22:22:19.626Z,410.37
2022-12-31T22:24:46.521Z,485.77
2022-12-31T22:27:28.571Z,377.20
2022-12-31T22:29:56.509Z,390.27
2022-12-31T22:32:24.513Z,390.63
2022-12-31T22:34:51.434Z,399.00
2022-12-31T22:37:46.439Z,381.07
2022-12-31T22:40:06.346Z,392.53
2022-12-31T22:42:33.224Z,360.67
2022-12-31T22:45:00.132Z,335.97
2022-12-31T22:47:27.101Z,367.33
2022-12-31T22:49:54.029Z,310.87
2022-12-31T22:52:21.676Z,314.97
2022-12-31T22:54:48.664Z,292.27
2022-12-31T22:57:20.011Z,314.37
2022-12-31T22:59:47.398Z,316.57
2022-12-31T23:02:14.415Z,336.73
2022-12-31T23:04:41.370Z,335.20
2022-12-31T23:07:08.285Z,339.43
2022-12-31T23:09:53.717Z,337.90
2022-12-31T23:12:20.634Z,291.87
2022-12-31T23:15:06.355Z,265.90
2022-12-31T23:17:51.774Z,240.07
2022-12-31T23:20:40.450Z,257.37
2022-12-31T23:23:15.892Z,307.55
2022-12-31T23:25:50.038Z,297.83
2022-12-31T23:28:23.415Z,299.80
2022-12-31T23:30:53.805Z,307.27
2022-12-31T23:33:23.294Z,305.03
2022-12-31T23:38:18.713Z,305.50
2022-12-31T23:40:47.384Z,298.13
2022-12-31T23:43:22.547Z,318.88
2022-12-31T23:45:53.209Z,308.48
2022-12-31T23:48:20.189Z,326.27
2022-12-31T23:50:53.441Z,318.97
2022-12-31T23:53:24.697Z,297.13
2022-12-31T23:55:52.537Z,320.57
2022-12-31T23:58:22.129Z,323.47
